AGS weather

Augusta Regional At Bush Field
Augusta, Georgia, United States

Public forecast

Using degrees Fahrenheit for public forecast. Weather courtesy of forecast.io.

METAR (pilot weather report)

Retrieved 2019/05/20 07:15 UTC (1 hour ago):

KAGS 200715Z AUTO 14004KT 10SM SCT009 22/21 A3002 RMK AO2 T02170206

TAF (pilot weather forecast)

Retrieved 2019/05/20 06:42 UTC (2 hours ago):

TAF KAGS 200541Z 2006/2106 16005KT P6SM FEW250 TEMPO 2009/2012 4SM BR SCT008 BKN012 FM201400 24008KT P6SM SCT040 SCT250 FM210100 23003KT P6SM SCT050